sensor_id;sensor_type;location;lat;lon;timestamp;pressure;altitude;pressure_sealevel;temperature;humidity
22649;BME280;11491;41.942;24.220;2023-02-04T00:01:27;89590.69;;;-1.56;69.96
22649;BME280;11491;41.942;24.220;2023-02-04T00:03:54;89578.72;;;-1.43;69.43
22649;BME280;11491;41.942;24.220;2023-02-04T00:06:21;89575.03;;;-1.42;69.21
22649;BME280;11491;41.942;24.220;2023-02-04T00:08:47;89575.28;;;-1.39;70.02
22649;BME280;11491;41.942;24.220;2023-02-04T00:11:16;89565.63;;;-1.43;69.99
22649;BME280;11491;41.942;24.220;2023-02-04T00:13:42;89564.94;;;-1.30;70.35
22649;BME280;11491;41.942;24.220;2023-02-04T00:16:09;89540.03;;;-1.52;70.04
22649;BME280;11491;41.942;24.220;2023-02-04T00:18:36;89561.88;;;-1.37;70.42
22649;BME280;11491;41.942;24.220;2023-02-04T00:21:03;89550.28;;;-1.31;70.17
22649;BME280;11491;41.942;24.220;2023-02-04T00:23:30;89552.38;;;-1.33;70.53
22649;BME280;11491;41.942;24.220;2023-02-04T00:25:56;89546.75;;;-1.45;71.04
22649;BME280;11491;41.942;24.220;2023-02-04T00:28:25;89536.78;;;-1.43;71.23
22649;BME280;11491;41.942;24.220;2023-02-04T00:30:51;89499.03;;;-1.47;70.37
22649;BME280;11491;41.942;24.220;2023-02-04T00:33:18;89533.06;;;-1.18;70.15
22649;BME280;11491;41.942;24.220;2023-02-04T00:35:45;89524.41;;;-1.19;69.59
22649;BME280;11491;41.942;24.220;2023-02-04T00:38:12;89529.88;;;-1.39;70.94
22649;BME280;11491;41.942;24.220;2023-02-04T00:40:38;89529.16;;;-1.21;69.75
22649;BME280;11491;41.942;24.220;2023-02-04T00:43:05;89530.09;;;-1.12;68.02
22649;BME280;11491;41.942;24.220;2023-02-04T00:45:33;89526.84;;;-1.03;67.52
22649;BME280;11491;41.942;24.220;2023-02-04T00:48:00;89517.38;;;-1.04;66.94
22649;BME280;11491;41.942;24.220;2023-02-04T00:50:27;89501.78;;;-1.15;67.04
22649;BME280;11491;41.942;24.220;2023-02-04T00:52:53;89489.16;;;-1.13;67.98
22649;BME280;11491;41.942;24.220;2023-02-04T00:55:20;89489.03;;;-1.02;67.34
22649;BME280;11491;41.942;24.220;2023-02-04T00:57:47;89480.53;;;-0.94;66.75
22649;BME280;11491;41.942;24.220;2023-02-04T01:00:14;89479.09;;;-1.05;67.99
22649;BME280;11491;41.942;24.220;2023-02-04T01:02:42;89487.38;;;-1.17;68.67
22649;BME280;11491;41.942;24.220;2023-02-04T01:05:09;89470.00;;;-1.32;69.36
22649;BME280;11491;41.942;24.220;2023-02-04T01:07:36;89462.34;;;-1.47;70.25
22649;BME280;11491;41.942;24.220;2023-02-04T01:10:03;89453.78;;;-1.34;70.52
22649;BME280;11491;41.942;24.220;2023-02-04T01:12:30;89446.47;;;-1.37;70.93
22649;BME280;11491;41.942;24.220;2023-02-04T01:14:57;89447.31;;;-1.23;70.20
22649;BME280;11491;41.942;24.220;2023-02-04T01:17:23;89455.41;;;-1.38;69.58
22649;BME280;11491;41.942;24.220;2023-02-04T01:19:52;89448.03;;;-1.36;70.22
22649;BME280;11491;41.942;24.220;2023-02-04T01:22:19;89444.34;;;-1.35;70.25
22649;BME280;11491;41.942;24.220;2023-02-04T01:24:45;89440.59;;;-1.48;70.49
22649;BME280;11491;41.942;24.220;2023-02-04T01:27:13;89441.22;;;-1.37;70.27
22649;BME280;11491;41.942;24.220;2023-02-04T01:29:40;89432.06;;;-1.40;70.52
22649;BME280;11491;41.942;24.220;2023-02-04T01:32:07;89428.59;;;-1.35;70.87
22649;BME280;11491;41.942;24.220;2023-02-04T01:34:33;89428.53;;;-1.30;70.84
22649;BME280;11491;41.942;24.220;2023-02-04T01:37:01;89425.56;;;-1.42;71.28
22649;BME280;11491;41.942;24.220;2023-02-04T01:39:28;89427.31;;;-1.57;72.31
22649;BME280;11491;41.942;24.220;2023-02-04T01:41:55;89432.13;;;-1.64;72.04
22649;BME280;11491;41.942;24.220;2023-02-04T01:44:22;89417.38;;;-1.60;72.90
22649;BME280;11491;41.942;24.220;2023-02-04T01:46:49;89411.03;;;-1.54;72.47
22649;BME280;11491;41.942;24.220;2023-02-04T01:49:16;89418.75;;;-1.43;71.84
22649;BME280;11491;41.942;24.220;2023-02-04T01:51:43;89414.09;;;-1.46;72.35
22649;BME280;11491;41.942;24.220;2023-02-04T01:54:12;89403.09;;;-1.48;71.92
22649;BME280;11491;41.942;24.220;2023-02-04T01:56:42;89408.97;;;-1.38;72.39
22649;BME280;11491;41.942;24.220;2023-02-04T01:59:11;89380.03;;;-1.70;72.62
22649;BME280;11491;41.942;24.220;2023-02-04T02:01:40;89408.34;;;-1.48;72.81
22649;BME280;11491;41.942;24.220;2023-02-04T02:04:08;89407.34;;;-1.53;73.21
22649;BME280;11491;41.942;24.220;2023-02-04T02:06:37;89406.84;;;-1.36;72.70
22649;BME280;11491;41.942;24.220;2023-02-04T02:09:04;89405.44;;;-1.28;72.36
22649;BME280;11491;41.942;24.220;2023-02-04T02:11:33;89405.28;;;-1.37;72.67
22649;BME280;11491;41.942;24.220;2023-02-04T02:14:00;89382.88;;;-1.48;73.45
22649;BME280;11491;41.942;24.220;2023-02-04T02:16:26;89399.75;;;-1.35;73.38
22649;BME280;11491;41.942;24.220;2023-02-04T02:18:53;89405.84;;;-1.21;73.36
22649;BME280;11491;41.942;24.220;2023-02-04T02:21:30;89398.56;;;-1.24;73.58
22649;BME280;11491;41.942;24.220;2023-02-04T02:23:59;89401.53;;;-1.12;73.43
22649;BME280;11491;41.942;24.220;2023-02-04T02:26:26;89391.03;;;-1.12;71.54
22649;BME280;11491;41.942;24.220;2023-02-04T02:28:53;89386.97;;;-1.04;70.90
22649;BME280;11491;41.942;24.220;2023-02-04T02:31:21;89379.97;;;-1.09;71.20
22649;BME280;11491;41.942;24.220;2023-02-04T02:33:48;89382.69;;;-1.00;70.86
22649;BME280;11491;41.942;24.220;2023-02-04T02:36:16;89383.88;;;-0.92;70.90
22649;BME280;11491;41.942;24.220;2023-02-04T02:38:43;89380.22;;;-0.91;70.99
22649;BME280;11491;41.942;24.220;2023-02-04T02:41:11;89377.41;;;-1.14;71.35
22649;BME280;11491;41.942;24.220;2023-02-04T02:43:38;89383.78;;;-1.20;71.91
22649;BME280;11491;41.942;24.220;2023-02-04T02:46:05;89374.59;;;-1.36;72.33
22649;BME280;11491;41.942;24.220;2023-02-04T02:48:32;89339.16;;;-1.53;72.29
22649;BME280;11491;41.942;24.220;2023-02-04T02:50:59;89360.63;;;-1.32;72.40
22649;BME280;11491;41.942;24.220;2023-02-04T02:53:26;89360.34;;;-1.30;72.13
22649;BME280;11491;41.942;24.220;2023-02-04T02:55:52;89359.69;;;-1.22;72.54
22649;BME280;11491;41.942;24.220;2023-02-04T02:58:23;89352.22;;;-1.15;72.72
22649;BME280;11491;41.942;24.220;2023-02-04T03:00:52;89349.19;;;-1.22;73.14
22649;BME280;11491;41.942;24.220;2023-02-04T03:03:22;89348.81;;;-1.15;72.47
22649;BME280;11491;41.942;24.220;2023-02-04T03:05:54;89328.78;;;-1.25;73.09
22649;BME280;11491;41.942;24.220;2023-02-04T03:08:21;89333.06;;;-1.29;73.46
22649;BME280;11491;41.942;24.220;2023-02-04T03:10:48;89326.81;;;-1.33;73.56
22649;BME280;11491;41.942;24.220;2023-02-04T03:13:15;89326.66;;;-1.23;72.89
22649;BME280;11491;41.942;24.220;2023-02-04T03:15:45;89286.13;;;-1.49;72.49
22649;BME280;11491;41.942;24.220;2023-02-04T03:18:15;89322.69;;;-1.39;73.27
22649;BME280;11491;41.942;24.220;2023-02-04T03:20:43;89325.81;;;-1.37;73.09
22649;BME280;11491;41.942;24.220;2023-02-04T03:23:10;89327.50;;;-1.27;73.20
22649;BME280;11491;41.942;24.220;2023-02-04T03:25:37;89323.19;;;-1.37;73.65
22649;BME280;11491;41.942;24.220;2023-02-04T03:28:05;89318.44;;;-1.35;73.29
22649;BME280;11491;41.942;24.220;2023-02-04T03:30:31;89314.19;;;-1.31;72.84
22649;BME280;11491;41.942;24.220;2023-02-04T03:33:00;89315.47;;;-1.47;73.74
22649;BME280;11491;41.942;24.220;2023-02-04T03:35:26;89310.16;;;-1.42;73.68
22649;BME280;11491;41.942;24.220;2023-02-04T03:37:53;89297.44;;;-1.49;73.89
22649;BME280;11491;41.942;24.220;2023-02-04T03:40:20;89303.03;;;-1.56;74.44
22649;BME280;11491;41.942;24.220;2023-02-04T03:42:47;89299.63;;;-1.75;75.38
22649;BME280;11491;41.942;24.220;2023-02-04T03:45:14;89301.19;;;-1.74;76.28
22649;BME280;11491;41.942;24.220;2023-02-04T03:47:40;89301.06;;;-1.64;75.83
22649;BME280;11491;41.942;24.220;2023-02-04T03:50:08;89303.59;;;-1.59;76.35
22649;BME280;11491;41.942;24.220;2023-02-04T03:52:38;89297.19;;;-1.53;76.53
22649;BME280;11491;41.942;24.220;2023-02-04T03:55:05;89304.84;;;-1.37;75.77
22649;BME280;11491;41.942;24.220;2023-02-04T03:57:32;89291.88;;;-1.47;75.33
22649;BME280;11491;41.942;24.220;2023-02-04T03:59:59;89298.78;;;-1.52;76.28
22649;BME280;11491;41.942;24.220;2023-02-04T04:02:25;89278.34;;;-1.55;75.02
22649;BME280;11491;41.942;24.220;2023-02-04T04:04:52;89270.00;;;-1.57;75.90
22649;BME280;11491;41.942;24.220;2023-02-04T04:07:20;89264.28;;;-1.78;75.48
22649;BME280;11491;41.942;24.220;2023-02-04T04:09:47;89267.53;;;-1.67;76.22
22649;BME280;11491;41.942;24.220;2023-02-04T04:12:14;89250.91;;;-1.76;75.79
22649;BME280;11491;41.942;24.220;2023-02-04T04:14:40;89243.50;;;-1.74;76.05
22649;BME280;11491;41.942;24.220;2023-02-04T04:17:07;89239.34;;;-2.32;77.44
22649;BME280;11491;41.942;24.220;2023-02-04T04:19:34;89238.00;;;-2.29;78.10
22649;BME280;11491;41.942;24.220;2023-02-04T04:22:00;89242.28;;;-2.33;78.48
22649;BME280;11491;41.942;24.220;2023-02-04T04:24:29;89247.50;;;-2.14;77.92
22649;BME280;11491;41.942;24.220;2023-02-04T04:26:56;89256.00;;;-2.04;77.27
22649;BME280;11491;41.942;24.220;2023-02-04T04:29:23;89248.78;;;-2.12;76.75
22649;BME280;11491;41.942;24.220;2023-02-04T04:31:49;89243.69;;;-2.22;77.38
22649;BME280;11491;41.942;24.220;2023-02-04T04:34:16;89263.94;;;-2.09;77.28
22649;BME280;11491;41.942;24.220;2023-02-04T04:36:43;89268.06;;;-2.03;77.07
22649;BME280;11491;41.942;24.220;2023-02-04T04:39:09;89261.22;;;-2.42;78.43
22649;BME280;11491;41.942;24.220;2023-02-04T04:41:37;89277.50;;;-2.45;78.42
22649;BME280;11491;41.942;24.220;2023-02-04T04:44:05;89254.25;;;-2.51;78.76
22649;BME280;11491;41.942;24.220;2023-02-04T04:46:31;89268.69;;;-2.54;79.81
22649;BME280;11491;41.942;24.220;2023-02-04T04:48:58;89258.47;;;-2.50;80.48
22649;BME280;11491;41.942;24.220;2023-02-04T04:51:25;89253.03;;;-2.78;81.08
22649;BME280;11491;41.942;24.220;2023-02-04T04:53:51;89258.03;;;-2.82;82.14
22649;BME280;11491;41.942;24.220;2023-02-04T04:56:18;89260.06;;;-2.78;82.05
22649;BME280;11491;41.942;24.220;2023-02-04T04:58:46;89269.94;;;-2.70;82.07
22649;BME280;11491;41.942;24.220;2023-02-04T05:01:13;89277.00;;;-2.47;81.50
22649;BME280;11491;41.942;24.220;2023-02-04T05:03:40;89239.34;;;-2.51;81.54
22649;BME280;11491;41.942;24.220;2023-02-04T05:06:06;89244.94;;;-2.39;81.08
22649;BME280;11491;41.942;24.220;2023-02-04T05:08:33;89242.91;;;-2.23;80.99
22649;BME280;11491;41.942;24.220;2023-02-04T05:11:01;89244.13;;;-2.15;80.57
22649;BME280;11491;41.942;24.220;2023-02-04T05:13:28;89245.50;;;-2.04;79.96
22649;BME280;11491;41.942;24.220;2023-02-04T05:15:56;89241.63;;;-1.87;79.84
22649;BME280;11491;41.942;24.220;2023-02-04T05:18:23;89243.50;;;-1.74;79.07
22649;BME280;11491;41.942;24.220;2023-02-04T05:20:49;89243.50;;;-1.74;78.75
22649;BME280;11491;41.942;24.220;2023-02-04T05:23:16;89250.66;;;-1.61;78.77
22649;BME280;11491;41.942;24.220;2023-02-04T05:25:43;89242.81;;;-1.61;79.06
22649;BME280;11491;41.942;24.220;2023-02-04T05:28:09;89245.34;;;-1.56;78.69
22649;BME280;11491;41.942;24.220;2023-02-04T05:30:36;89241.47;;;-1.44;78.23
22649;BME280;11491;41.942;24.220;2023-02-04T05:33:04;89237.47;;;-1.23;77.66
22649;BME280;11491;41.942;24.220;2023-02-04T05:35:31;89232.63;;;-1.16;76.52
22649;BME280;11491;41.942;24.220;2023-02-04T05:37:58;89236.09;;;-1.34;76.87
22649;BME280;11491;41.942;24.220;2023-02-04T05:40:24;89244.66;;;-1.15;76.57
22649;BME280;11491;41.942;24.220;2023-02-04T05:42:51;89254.59;;;-1.12;76.74
22649;BME280;11491;41.942;24.220;2023-02-04T05:45:18;89254.00;;;-1.09;76.90
22649;BME280;11491;41.942;24.220;2023-02-04T05:47:44;89269.00;;;-0.95;76.52
22649;BME280;11491;41.942;24.220;2023-02-04T05:50:13;89259.25;;;-1.09;76.33
22649;BME280;11491;41.942;24.220;2023-02-04T05:52:40;89279.66;;;-1.05;76.16
22649;BME280;11491;41.942;24.220;2023-02-04T05:55:09;89260.66;;;-1.30;76.95
22649;BME280;11491;41.942;24.220;2023-02-04T05:57:35;89269.31;;;-1.30;78.30
22649;BME280;11491;41.942;24.220;2023-02-04T06:00:04;89275.72;;;-1.22;77.72
22649;BME280;11491;41.942;24.220;2023-02-04T06:02:31;89257.63;;;-1.37;78.08
22649;BME280;11491;41.942;24.220;2023-02-04T06:04:58;89273.09;;;-1.22;78.29
22649;BME280;11491;41.942;24.220;2023-02-04T06:07:26;89265.09;;;-1.12;78.39
22649;BME280;11491;41.942;24.220;2023-02-04T06:09:53;89264.31;;;-0.98;78.39
22649;BME280;11491;41.942;24.220;2023-02-04T06:12:20;89273.19;;;-0.94;78.09
22649;BME280;11491;41.942;24.220;2023-02-04T06:14:47;89258.72;;;-0.92;78.60
22649;BME280;11491;41.942;24.220;2023-02-04T06:17:13;89265.69;;;-0.87;77.80
22649;BME280;11491;41.942;24.220;2023-02-04T06:19:40;89265.03;;;-0.79;77.36
22649;BME280;11491;41.942;24.220;2023-02-04T06:22:07;89251.13;;;-0.79;77.64
22649;BME280;11491;41.942;24.220;2023-02-04T06:24:35;89235.75;;;-1.00;77.65
22649;BME280;11491;41.942;24.220;2023-02-04T06:27:01;89264.16;;;-0.88;77.69
22649;BME280;11491;41.942;24.220;2023-02-04T06:29:28;89253.81;;;-0.98;78.40
22649;BME280;11491;41.942;24.220;2023-02-04T06:31:55;89248.78;;;-0.81;78.48
22649;BME280;11491;41.942;24.220;2023-02-04T06:34:22;89249.19;;;-0.74;78.03
22649;BME280;11491;41.942;24.220;2023-02-04T06:36:48;89258.50;;;-0.68;77.33
22649;BME280;11491;41.942;24.220;2023-02-04T06:39:15;89252.69;;;-0.64;77.81
22649;BME280;11491;41.942;24.220;2023-02-04T06:41:43;89259.31;;;-0.53;77.39
22649;BME280;11491;41.942;24.220;2023-02-04T06:44:10;89260.84;;;-0.38;77.72
22649;BME280;11491;41.942;24.220;2023-02-04T06:46:37;89263.28;;;-0.14;76.70
22649;BME280;11491;41.942;24.220;2023-02-04T06:49:03;89250.88;;;0.00;75.84
22649;BME280;11491;41.942;24.220;2023-02-04T06:51:30;89256.38;;;0.12;74.80
22649;BME280;11491;41.942;24.220;2023-02-04T06:53:57;89255.31;;;0.13;75.02
22649;BME280;11491;41.942;24.220;2023-02-04T06:56:23;89269.94;;;0.06;74.85
22649;BME280;11491;41.942;24.220;2023-02-04T06:58:52;89264.88;;;0.09;76.25
22649;BME280;11491;41.942;24.220;2023-02-04T07:01:19;89261.06;;;0.15;75.48
22649;BME280;11491;41.942;24.220;2023-02-04T07:03:46;89266.81;;;0.17;75.64
22649;BME280;11491;41.942;24.220;2023-02-04T07:06:12;89275.75;;;0.16;75.95
22649;BME280;11491;41.942;24.220;2023-02-04T07:08:39;89275.91;;;0.34;76.19
22649;BME280;11491;41.942;24.220;2023-02-04T07:11:06;89270.41;;;0.44;74.49
22649;BME280;11491;41.942;24.220;2023-02-04T07:13:33;89275.31;;;0.37;75.52
22649;BME280;11491;41.942;24.220;2023-02-04T07:16:01;89281.53;;;0.41;75.39
22649;BME280;11491;41.942;24.220;2023-02-04T07:18:27;89279.16;;;0.53;75.46
22649;BME280;11491;41.942;24.220;2023-02-04T07:20:54;89267.69;;;0.72;74.41
22649;BME280;11491;41.942;24.220;2023-02-04T07:23:21;89269.84;;;0.70;74.31
22649;BME280;11491;41.942;24.220;2023-02-04T07:25:48;89266.13;;;0.48;75.53
22649;BME280;11491;41.942;24.220;2023-02-04T07:28:17;89252.63;;;0.63;75.08
22649;BME280;11491;41.942;24.220;2023-02-04T07:30:44;89245.38;;;0.69;74.75
22649;BME280;11491;41.942;24.220;2023-02-04T07:33:12;89253.44;;;0.95;74.28
22649;BME280;11491;41.942;24.220;2023-02-04T07:35:39;89247.25;;;1.31;73.76
22649;BME280;11491;41.942;24.220;2023-02-04T07:38:06;89256.88;;;1.67;72.70
22649;BME280;11491;41.942;24.220;2023-02-04T07:40:33;89260.97;;;1.90;71.82
22649;BME280;11491;41.942;24.220;2023-02-04T07:42:59;89268.16;;;2.16;70.85
22649;BME280;11491;41.942;24.220;2023-02-04T07:45:26;89268.34;;;2.46;70.30
22649;BME280;11491;41.942;24.220;2023-02-04T07:47:53;89269.13;;;2.72;68.74
22649;BME280;11491;41.942;24.220;2023-02-04T07:50:21;89265.41;;;2.91;67.91
22649;BME280;11491;41.942;24.220;2023-02-04T07:52:47;89265.38;;;3.08;67.64
22649;BME280;11491;41.942;24.220;2023-02-04T07:55:14;89270.47;;;3.22;67.04
22649;BME280;11491;41.942;24.220;2023-02-04T07:57:41;89269.19;;;3.37;66.52
22649;BME280;11491;41.942;24.220;2023-02-04T08:00:10;89260.16;;;3.47;66.70
22649;BME280;11491;41.942;24.220;2023-02-04T08:02:38;89260.28;;;3.50;65.84
22649;BME280;11491;41.942;24.220;2023-02-04T08:05:06;89263.56;;;3.56;65.57
22649;BME280;11491;41.942;24.220;2023-02-04T08:07:34;89254.81;;;3.64;65.08
22649;BME280;11491;41.942;24.220;2023-02-04T08:10:01;89251.81;;;3.74;64.69
22649;BME280;11491;41.942;24.220;2023-02-04T08:12:30;89249.63;;;3.76;64.08
22649;BME280;11491;41.942;24.220;2023-02-04T08:14:57;89241.00;;;3.58;63.19
22649;BME280;11491;41.942;24.220;2023-02-04T08:17:24;89251.94;;;3.48;62.39
22649;BME280;11491;41.942;24.220;2023-02-04T08:19:51;89250.69;;;3.37;63.29
22649;BME280;11491;41.942;24.220;2023-02-04T08:22:17;89253.38;;;3.28;63.51
22649;BME280;11491;41.942;24.220;2023-02-04T08:24:45;89251.28;;;3.51;63.51
22649;BME280;11491;41.942;24.220;2023-02-04T08:27:13;89256.34;;;3.74;62.03
22649;BME280;11491;41.942;24.220;2023-02-04T08:29:39;89244.81;;;3.78;61.57
22649;BME280;11491;41.942;24.220;2023-02-04T08:32:06;89250.72;;;4.05;61.92
22649;BME280;11491;41.942;24.220;2023-02-04T08:34:34;89251.16;;;4.87;59.96
22649;BME280;11491;41.942;24.220;2023-02-04T08:37:01;89232.88;;;5.40;57.74
22649;BME280;11491;41.942;24.220;2023-02-04T08:39:27;89250.09;;;5.79;54.98
22649;BME280;11491;41.942;24.220;2023-02-04T08:41:56;89252.38;;;5.69;55.71
22649;BME280;11491;41.942;24.220;2023-02-04T08:44:22;89246.50;;;5.51;55.67
22649;BME280;11491;41.942;24.220;2023-02-04T08:46:49;89244.31;;;5.65;55.58
22649;BME280;11491;41.942;24.220;2023-02-04T08:49:16;89249.91;;;6.09;54.39
22649;BME280;11491;41.942;24.220;2023-02-04T08:51:43;89246.59;;;6.00;53.11
22649;BME280;11491;41.942;24.220;2023-02-04T08:54:09;89240.63;;;6.28;52.00
22649;BME280;11491;41.942;24.220;2023-02-04T08:56:36;89245.25;;;7.36;50.86
22649;BME280;11491;41.942;24.220;2023-02-04T08:59:04;89244.63;;;8.66;46.03
22649;BME280;11491;41.942;24.220;2023-02-04T09:01:31;89240.47;;;9.04;45.19
22649;BME280;11491;41.942;24.220;2023-02-04T09:03:58;89251.41;;;8.99;44.45
22649;BME280;11491;41.942;24.220;2023-02-04T09:06:24;89240.19;;;9.09;43.17
22649;BME280;11491;41.942;24.220;2023-02-04T09:08:51;89248.34;;;8.97;43.39
22649;BME280;11491;41.942;24.220;2023-02-04T09:11:18;89238.59;;;8.69;44.05
22649;BME280;11491;41.942;24.220;2023-02-04T09:13:45;89231.19;;;8.78;42.69
22649;BME280;11491;41.942;24.220;2023-02-04T09:16:13;89244.47;;;7.95;44.50
22649;BME280;11491;41.942;24.220;2023-02-04T09:18:40;89229.44;;;8.19;44.33
22649;BME280;11491;41.942;24.220;2023-02-04T09:21:06;89220.53;;;8.78;43.00
22649;BME280;11491;41.942;24.220;2023-02-04T09:23:33;89229.72;;;8.81;42.18
22649;BME280;11491;41.942;24.220;2023-02-04T09:26:00;89231.88;;;8.40;42.85
22649;BME280;11491;41.942;24.220;2023-02-04T09:28:28;89221.59;;;8.58;43.05
22649;BME280;11491;41.942;24.220;2023-02-04T09:30:55;89222.75;;;8.25;43.91
22649;BME280;11491;41.942;24.220;2023-02-04T09:33:23;89217.41;;;8.09;42.85
22649;BME280;11491;41.942;24.220;2023-02-04T09:35:50;89216.34;;;7.06;44.86
22649;BME280;11491;41.942;24.220;2023-02-04T09:38:16;89213.16;;;6.48;46.02
22649;BME280;11491;41.942;24.220;2023-02-04T09:40:46;89202.28;;;6.65;46.25
22649;BME280;11491;41.942;24.220;2023-02-04T09:43:17;89215.22;;;7.07;45.31
22649;BME280;11491;41.942;24.220;2023-02-04T09:45:47;89197.75;;;7.82;42.76
22649;BME280;11491;41.942;24.220;2023-02-04T09:48:14;89190.41;;;8.58;39.82
22649;BME280;11491;41.942;24.220;2023-02-04T09:50:43;89189.03;;;8.49;39.78
22649;BME280;11491;41.942;24.220;2023-02-04T09:53:12;89182.75;;;8.57;39.96
22649;BME280;11491;41.942;24.220;2023-02-04T09:55:43;89172.00;;;8.89;38.87
22649;BME280;11491;41.942;24.220;2023-02-04T09:58:13;89164.06;;;8.37;39.77
22649;BME280;11491;41.942;24.220;2023-02-04T10:00:42;89165.09;;;8.68;39.85
22649;BME280;11491;41.942;24.220;2023-02-04T10:03:13;89151.22;;;9.83;37.01
22649;BME280;11491;41.942;24.220;2023-02-04T10:05:43;89154.78;;;10.93;35.25
22649;BME280;11491;41.942;24.220;2023-02-04T10:08:13;89140.47;;;11.12;33.16
22649;BME280;11491;41.942;24.220;2023-02-04T10:10:41;89132.75;;;11.04;33.22
22649;BME280;11491;41.942;24.220;2023-02-04T10:13:12;89135.41;;;11.04;34.92
22649;BME280;11491;41.942;24.220;2023-02-04T10:15:40;89140.41;;;11.42;31.96
22649;BME280;11491;41.942;24.220;2023-02-04T10:18:07;89130.53;;;9.99;32.09
22649;BME280;11491;41.942;24.220;2023-02-04T10:20:38;89121.66;;;9.95;34.87
22649;BME280;11491;41.942;24.220;2023-02-04T10:23:09;89132.41;;;9.30;33.32
22649;BME280;11491;41.942;24.220;2023-02-04T10:25:36;89123.88;;;8.81;34.62
22649;BME280;11491;41.942;24.220;2023-02-04T10:28:03;89109.00;;;9.00;34.41
22649;BME280;11491;41.942;24.220;2023-02-04T10:30:36;89106.19;;;9.58;34.99
22649;BME280;11491;41.942;24.220;2023-02-04T10:33:12;89110.28;;;10.25;34.50
22649;BME280;11491;41.942;24.220;2023-02-04T10:35:44;89117.16;;;11.47;32.58
22649;BME280;11491;41.942;24.220;2023-02-04T10:38:12;89108.19;;;11.69;32.49
22649;BME280;11491;41.942;24.220;2023-02-04T10:40:39;89104.19;;;10.81;31.73
22649;BME280;11491;41.942;24.220;2023-02-04T10:43:08;89098.94;;;10.88;32.58
22649;BME280;11491;41.942;24.220;2023-02-04T10:45:36;89100.75;;;9.51;34.93
22649;BME280;11491;41.942;24.220;2023-02-04T10:48:03;89090.78;;;8.63;36.60
22649;BME280;11491;41.942;24.220;2023-02-04T10:50:30;89083.72;;;8.94;35.23
22649;BME280;11491;41.942;24.220;2023-02-04T10:52:58;89079.88;;;9.34;34.70
22649;BME280;11491;41.942;24.220;2023-02-04T10:55:41;89084.44;;;9.56;35.36
22649;BME280;11491;41.942;24.220;2023-02-04T10:58:10;89073.09;;;9.86;33.69
22649;BME280;11491;41.942;24.220;2023-02-04T11:00:37;89071.72;;;10.22;33.12
22649;BME280;11491;41.942;24.220;2023-02-04T11:03:08;89077.44;;;9.48;35.19
22649;BME280;11491;41.942;24.220;2023-02-04T11:05:37;89066.34;;;9.00;34.47
22649;BME280;11491;41.942;24.220;2023-02-04T11:08:19;89063.22;;;8.01;37.22
22649;BME280;11491;41.942;24.220;2023-02-04T11:10:49;89058.97;;;7.64;37.16
22649;BME280;11491;41.942;24.220;2023-02-04T11:13:22;89071.56;;;6.88;38.62
22649;BME280;11491;41.942;24.220;2023-02-04T11:15:53;89065.31;;;6.52;38.22
22649;BME280;11491;41.942;24.220;2023-02-04T11:18:28;89070.94;;;6.35;39.49
22649;BME280;11491;41.942;24.220;2023-02-04T11:20:58;89061.59;;;6.13;40.30
22649;BME280;11491;41.942;24.220;2023-02-04T11:23:33;89067.25;;;6.11;42.47
22649;BME280;11491;41.942;24.220;2023-02-04T11:26:04;89055.38;;;6.21;41.62
22649;BME280;11491;41.942;24.220;2023-02-04T11:28:43;89058.59;;;6.14;42.75
22649;BME280;11491;41.942;24.220;2023-02-04T11:31:25;89057.97;;;6.05;41.31
22649;BME280;11491;41.942;24.220;2023-02-04T11:34:07;89042.50;;;5.82;41.21
22649;BME280;11491;41.942;24.220;2023-02-04T11:36:35;89051.91;;;5.80;43.79
22649;BME280;11491;41.942;24.220;2023-02-04T11:39:15;89049.69;;;5.82;42.24
22649;BME280;11491;41.942;24.220;2023-02-04T11:41:45;89050.19;;;5.47;42.84
22649;BME280;11491;41.942;24.220;2023-02-04T11:44:12;89041.41;;;5.71;44.47
22649;BME280;11491;41.942;24.220;2023-02-04T11:46:39;89045.41;;;5.65;42.26
22649;BME280;11491;41.942;24.220;2023-02-04T11:49:14;89029.59;;;5.69;42.76
22649;BME280;11491;41.942;24.220;2023-02-04T11:51:43;89039.69;;;5.51;44.03
22649;BME280;11491;41.942;24.220;2023-02-04T11:54:11;89047.41;;;5.31;44.37
22649;BME280;11491;41.942;24.220;2023-02-04T11:56:37;89042.75;;;4.91;44.71
22649;BME280;11491;41.942;24.220;2023-02-04T11:59:08;89034.56;;;4.72;46.36
22649;BME280;11491;41.942;24.220;2023-02-04T12:01:36;89033.13;;;4.50;48.03
22649;BME280;11491;41.942;24.220;2023-02-04T12:04:05;89018.88;;;4.42;47.09
22649;BME280;11491;41.942;24.220;2023-02-04T12:06:34;89038.13;;;4.30;47.89
22649;BME280;11491;41.942;24.220;2023-02-04T12:09:05;89043.03;;;4.20;49.02
22649;BME280;11491;41.942;24.220;2023-02-04T12:11:31;89047.94;;;4.30;50.36
22649;BME280;11491;41.942;24.220;2023-02-04T12:14:08;89050.09;;;4.16;49.42
22649;BME280;11491;41.942;24.220;2023-02-04T12:16:43;89047.44;;;4.16;51.19
22649;BME280;11491;41.942;24.220;2023-02-04T12:19:10;89045.66;;;4.07;50.89
22649;BME280;11491;41.942;24.220;2023-02-04T12:21:38;89045.16;;;3.93;53.14
22649;BME280;11491;41.942;24.220;2023-02-04T12:24:05;89047.69;;;4.02;53.54
22649;BME280;11491;41.942;24.220;2023-02-04T12:26:32;89054.72;;;4.19;53.26
22649;BME280;11491;41.942;24.220;2023-02-04T12:28:58;89055.03;;;4.38;53.25
22649;BME280;11491;41.942;24.220;2023-02-04T12:31:29;89047.13;;;4.50;52.58
22649;BME280;11491;41.942;24.220;2023-02-04T12:33:56;89040.94;;;4.59;51.84
22649;BME280;11491;41.942;24.220;2023-02-04T12:36:23;89036.09;;;4.61;51.82
22649;BME280;11491;41.942;24.220;2023-02-04T12:38:51;89035.00;;;4.74;51.92
22649;BME280;11491;41.942;24.220;2023-02-04T12:41:18;89038.13;;;4.76;51.75
22649;BME280;11491;41.942;24.220;2023-02-04T12:43:45;89052.75;;;4.61;50.17
22649;BME280;11491;41.942;24.220;2023-02-04T12:46:14;89045.28;;;4.30;49.22
22649;BME280;11491;41.942;24.220;2023-02-04T12:48:43;89044.22;;;4.10;50.69
22649;BME280;11491;41.942;24.220;2023-02-04T12:51:09;89057.25;;;3.94;50.50
22649;BME280;11491;41.942;24.220;2023-02-04T12:53:36;89046.16;;;3.80;51.63
22649;BME280;11491;41.942;24.220;2023-02-04T12:56:03;89049.53;;;3.89;51.82
22649;BME280;11491;41.942;24.220;2023-02-04T12:58:30;89054.41;;;3.99;52.83